createdAt,value
2019-02-26T00:00:26.804Z,25.00
2019-02-26T00:02:56.335Z,26.13
2019-02-26T00:05:26.157Z,26.13
2019-02-26T00:07:56.152Z,29.10
2019-02-26T00:10:26.724Z,16.80
2019-02-26T00:12:55.624Z,22.33
2019-02-26T00:15:23.999Z,24.33
2019-02-26T00:17:53.020Z,28.87
2019-02-26T00:20:21.603Z,17.13
2019-02-26T00:22:49.998Z,20.10
2019-02-26T00:25:20.337Z,23.83
2019-02-26T00:27:49.557Z,22.00
2019-02-26T00:30:18.744Z,19.27
2019-02-26T00:32:47.153Z,22.33
2019-02-26T00:35:16.039Z,20.27
2019-02-26T00:37:46.682Z,19.57
2019-02-26T00:40:19.640Z,20.27
2019-02-26T00:42:49.902Z,20.37
2019-02-26T00:45:16.179Z,17.23
2019-02-26T00:47:46.156Z,20.77
2019-02-26T00:50:16.592Z,22.70
2019-02-26T00:52:45.239Z,18.70
2019-02-26T00:55:13.699Z,22.30
2019-02-26T00:57:43.011Z,14.43
2019-02-26T01:00:16.412Z,17.27
2019-02-26T01:02:45.047Z,17.93
2019-02-26T01:05:15.722Z,15.30
2019-02-26T01:07:46.696Z,15.23
2019-02-26T01:10:16.401Z,16.03
2019-02-26T01:12:45.175Z,20.37
2019-02-26T01:15:16.051Z,15.43
2019-02-26T01:17:44.431Z,18.83
2019-02-26T01:20:19.336Z,15.67
2019-02-26T01:22:47.359Z,17.53
2019-02-26T01:25:18.493Z,22.03
2019-02-26T01:27:48.292Z,25.13
2019-02-26T01:30:21.092Z,16.00
2019-02-26T01:32:46.583Z,14.83
2019-02-26T01:35:15.112Z,17.87
2019-02-26T01:37:43.557Z,13.50
2019-02-26T01:40:18.250Z,18.17
2019-02-26T01:42:50.083Z,14.57
2019-02-26T01:45:15.307Z,14.53
2019-02-26T01:47:47.643Z,19.40
2019-02-26T01:50:15.889Z,15.10
2019-02-26T01:52:44.068Z,18.57
2019-02-26T01:55:13.089Z,18.17
2019-02-26T01:58:00.812Z,19.17
2019-02-26T02:00:29.188Z,23.57
2019-02-26T02:02:57.576Z,20.93
2019-02-26T02:05:28.593Z,21.50
2019-02-26T02:07:56.141Z,28.90
2019-02-26T02:10:24.515Z,17.67
2019-02-26T02:12:55.247Z,21.73
2019-02-26T02:15:23.764Z,24.87
2019-02-26T02:17:52.343Z,26.40
2019-02-26T02:20:21.585Z,20.40
2019-02-26T02:22:50.184Z,23.03
2019-02-26T02:25:18.663Z,23.03
2019-02-26T02:27:49.690Z,19.83
2019-02-26T02:30:23.244Z,19.60
2019-02-26T02:32:52.308Z,18.87
2019-02-26T02:35:19.365Z,20.53
2019-02-26T02:37:48.147Z,25.33
2019-02-26T02:40:16.565Z,20.20
2019-02-26T02:42:48.480Z,24.00
2019-02-26T02:45:19.668Z,23.83
2019-02-26T02:47:45.143Z,19.70
2019-02-26T02:50:15.265Z,17.80
2019-02-26T02:52:44.286Z,27.17
2019-02-26T02:55:15.549Z,18.33
2019-02-26T02:57:42.774Z,17.23
2019-02-26T03:00:15.806Z,24.37
2019-02-26T03:02:46.499Z,16.80
2019-02-26T03:05:14.423Z,19.33
2019-02-26T03:07:46.041Z,17.47
2019-02-26T03:10:14.692Z,19.70
2019-02-26T03:12:46.984Z,14.97
2019-02-26T03:15:17.073Z,15.63
2019-02-26T03:17:45.444Z,24.80
2019-02-26T03:20:14.968Z,15.87
2019-02-26T03:22:48.269Z,18.13
2019-02-26T03:25:20.981Z,16.93
2019-02-26T03:27:47.716Z,12.30
2019-02-26T03:30:31.087Z,16.83
2019-02-26T03:32:57.641Z,10.73
2019-02-26T03:35:23.338Z,11.13
2019-02-26T03:38:10.657Z,13.63
2019-02-26T03:40:39.011Z,13.43
2019-02-26T03:43:08.370Z,13.63
2019-02-26T03:45:37.571Z,15.97
2019-02-26T03:48:05.957Z,17.93
2019-02-26T03:50:34.329Z,14.83
2019-02-26T03:53:02.699Z,14.77
2019-02-26T03:55:33.592Z,14.00
2019-02-26T03:58:02.093Z,12.90
2019-02-26T04:00:32.500Z,20.33
2019-02-26T04:03:00.855Z,17.23
2019-02-26T04:05:29.240Z,15.90
2019-02-26T04:07:59.544Z,14.20
2019-02-26T04:10:27.730Z,12.40
2019-02-26T04:12:57.980Z,15.97
2019-02-26T04:15:27.930Z,14.80
2019-02-26T04:17:56.551Z,19.47
2019-02-26T04:20:27.075Z,20.93
2019-02-26T04:22:56.756Z,18.60
2019-02-26T04:25:56.986Z,12.73
2019-02-26T04:28:39.397Z,19.43
2019-02-26T04:31:12.448Z,18.47
2019-02-26T04:33:56.805Z,14.90
2019-02-26T04:36:28.993Z,17.50
2019-02-26T04:39:19.016Z,15.07
2019-02-26T04:42:16.890Z,18.00
2019-02-26T04:45:09.567Z,10.47
2019-02-26T04:47:49.507Z,16.87
2019-02-26T04:50:17.001Z,17.23
2019-02-26T04:52:45.381Z,15.63
2019-02-26T04:55:13.769Z,20.73
2019-02-26T04:57:43.245Z,21.17
2019-02-26T05:00:12.476Z,20.07
2019-02-26T05:02:40.860Z,13.50
2019-02-26T05:05:09.244Z,17.67
2019-02-26T05:07:38.585Z,17.20
2019-02-26T05:10:08.464Z,21.57
2019-02-26T05:12:39.951Z,21.40
2019-02-26T05:15:11.605Z,11.93
2019-02-26T05:17:37.610Z,18.53
2019-02-26T05:20:09.674Z,14.43
2019-02-26T05:22:36.715Z,30.80
2019-02-26T05:25:25.969Z,20.67
2019-02-26T05:27:54.353Z,22.73
2019-02-26T05:30:22.813Z,22.00
2019-02-26T05:32:53.970Z,25.97
2019-02-26T05:35:23.373Z,16.90
2019-02-26T05:37:51.403Z,13.33
2019-02-26T05:40:22.066Z,21.37
2019-02-26T05:42:49.998Z,22.20
2019-02-26T05:45:18.587Z,23.17
2019-02-26T05:47:48.864Z,20.73
2019-02-26T05:50:17.067Z,16.53
2019-02-26T05:52:49.766Z,17.37
2019-02-26T05:55:17.567Z,15.37
2019-02-26T05:57:45.647Z,13.67
2019-02-26T06:00:18.171Z,16.57
2019-02-26T06:02:48.544Z,14.43
2019-02-26T06:05:18.366Z,23.17
2019-02-26T06:07:46.664Z,19.20
2019-02-26T06:10:15.043Z,18.63
2019-02-26T06:12:46.372Z,12.53
2019-02-26T06:15:13.540Z,18.33
2019-02-26T06:17:43.730Z,17.70
2019-02-26T06:20:15.097Z,19.33
2019-02-26T06:22:43.484Z,16.03
2019-02-26T06:25:17.657Z,19.90
2019-02-26T06:27:42.041Z,27.17
2019-02-26T06:30:12.648Z,18.97
2019-02-26T06:32:42.651Z,28.13
2019-02-26T06:35:16.115Z,26.27
2019-02-26T06:37:43.952Z,22.93
2019-02-26T06:40:14.365Z,18.73
2019-02-26T06:42:42.760Z,22.13
2019-02-26T06:45:15.555Z,22.80
2019-02-26T06:47:45.294Z,24.37
2019-02-26T06:50:15.854Z,26.10
2019-02-26T06:52:46.837Z,21.17
2019-02-26T06:55:13.853Z,22.70
2019-02-26T06:57:46.380Z,19.47
2019-02-26T07:00:16.801Z,21.83
2019-02-26T07:02:46.228Z,18.47
2019-02-26T07:05:15.219Z,19.07
2019-02-26T07:07:43.595Z,13.70
2019-02-26T07:10:16.487Z,20.20
2019-02-26T07:12:45.531Z,16.17
2019-02-26T07:15:15.564Z,21.17
2019-02-26T07:17:45.942Z,14.93
2019-02-26T07:20:14.044Z,15.77
2019-02-26T07:22:44.093Z,18.80
2019-02-26T07:25:34.384Z,14.30
2019-02-26T07:28:02.898Z,13.03
2019-02-26T07:30:32.623Z,17.63
2019-02-26T07:33:03.112Z,12.73
2019-02-26T07:35:32.810Z,18.07
2019-02-26T07:38:03.563Z,15.77
2019-02-26T07:40:33.073Z,16.37
2019-02-26T07:43:04.861Z,12.37
2019-02-26T07:45:32.406Z,16.10
2019-02-26T07:48:01.071Z,11.80
2019-02-26T07:50:34.153Z,16.13
2019-02-26T07:53:00.120Z,16.63
2019-02-26T07:55:30.234Z,11.73
2019-02-26T07:57:58.605Z,16.13
2019-02-26T08:00:26.991Z,11.13
2019-02-26T08:02:57.867Z,19.67
2019-02-26T08:05:28.304Z,15.80
2019-02-26T08:07:56.512Z,13.70
2019-02-26T08:10:25.091Z,14.90
2019-02-26T08:12:53.480Z,14.53
2019-02-26T08:15:21.852Z,9.53
2019-02-26T08:17:54.780Z,15.90
2019-02-26T08:20:20.359Z,17.47
2019-02-26T08:22:49.536Z,16.83
2019-02-26T08:25:18.844Z,15.10
2019-02-26T08:27:49.325Z,14.90
2019-02-26T08:30:20.747Z,12.40
2019-02-26T08:32:51.071Z,11.87
2019-02-26T08:35:18.813Z,13.43
2019-02-26T08:37:47.996Z,13.20
2019-02-26T08:40:16.388Z,15.33
2019-02-26T08:42:44.839Z,12.63
2019-02-26T08:45:22.506Z,9.20
2019-02-26T08:47:50.065Z,19.47
2019-02-26T08:50:18.533Z,14.90
2019-02-26T08:52:49.912Z,14.80
2019-02-26T08:55:20.833Z,22.03
2019-02-26T08:57:47.144Z,13.30
2019-02-26T09:00:19.720Z,22.47
2019-02-26T09:02:50.592Z,12.23
2019-02-26T09:05:18.289Z,17.17
2019-02-26T09:07:47.617Z,14.67
2019-02-26T09:10:17.850Z,13.67
2019-02-26T09:12:48.999Z,19.43
2019-02-26T09:15:18.587Z,14.93
2019-02-26T09:17:46.987Z,20.97
2019-02-26T09:20:16.904Z,10.30
2019-02-26T09:22:47.975Z,16.23
2019-02-26T09:25:15.835Z,19.60
2019-02-26T09:27:44.216Z,13.83
2019-02-26T09:30:16.166Z,13.77
2019-02-26T09:32:45.011Z,11.77
2019-02-26T09:35:25.344Z,12.37
2019-02-26T09:37:52.610Z,11.13
2019-02-26T09:40:23.594Z,15.67
2019-02-26T09:42:54.274Z,9.13
2019-02-26T09:45:26.063Z,14.40
2019-02-26T09:47:55.728Z,14.50
2019-02-26T09:50:23.783Z,16.33
2019-02-26T09:52:53.431Z,16.60
2019-02-26T09:55:22.280Z,11.67
2019-02-26T09:57:50.669Z,15.43
2019-02-26T10:00:26.049Z,12.67
2019-02-26T10:02:53.213Z,9.00
2019-02-26T10:05:21.603Z,12.57
2019-02-26T10:07:52.299Z,11.80
2019-02-26T10:10:21.247Z,10.23
2019-02-26T10:12:53.237Z,13.77
2019-02-26T10:15:19.913Z,6.93
2019-02-26T10:17:48.287Z,11.23
2019-02-26T10:20:25.225Z,5.73
2019-02-26T10:22:53.236Z,7.17
2019-02-26T10:25:23.359Z,6.20
2019-02-26T10:27:52.659Z,13.07
2019-02-26T10:30:21.795Z,11.53
2019-02-26T10:32:50.171Z,11.30
2019-02-26T10:35:32.534Z,7.67
2019-02-26T10:37:59.624Z,10.83
2019-02-26T10:40:35.117Z,14.67
2019-02-26T10:42:58.010Z,7.57
2019-02-26T10:45:30.621Z,16.17
2019-02-26T10:48:01.570Z,13.33
2019-02-26T10:50:31.768Z,18.10
2019-02-26T10:53:06.856Z,11.17
2019-02-26T10:55:35.324Z,6.80
2019-02-26T10:58:06.354Z,12.20
2019-02-26T11:00:34.009Z,7.13
2019-02-26T11:03:00.788Z,8.27
2019-02-26T11:05:29.320Z,9.73
2019-02-26T11:07:59.742Z,9.90
2019-02-26T11:10:27.787Z,16.10
2019-02-26T11:12:58.646Z,9.03
2019-02-26T11:15:29.772Z,5.53
2019-02-26T11:17:56.459Z,6.40
2019-02-26T11:20:28.341Z,10.37
2019-02-26T11:22:56.977Z,8.80
2019-02-26T11:25:27.393Z,8.93
2019-02-26T11:27:55.471Z,9.17
2019-02-26T11:30:28.595Z,10.03
2019-02-26T11:32:58.697Z,10.60
2019-02-26T11:35:27.388Z,11.97
2019-02-26T11:37:57.901Z,7.90
2019-02-26T11:40:29.598Z,10.33
2019-02-26T11:42:56.610Z,8.83
2019-02-26T11:45:24.985Z,7.43
2019-02-26T11:47:55.190Z,8.15
2019-02-26T11:50:45.124Z,13.83
2019-02-26T11:53:13.660Z,7.33
2019-02-26T11:55:42.044Z,8.13
2019-02-26T11:58:13.173Z,8.10
2019-02-26T12:00:44.764Z,10.85
2019-02-26T12:03:12.868Z,12.98
2019-02-26T12:05:41.757Z,5.55
2019-02-26T12:08:11.495Z,9.50
2019-02-26T12:10:40.618Z,6.75
2019-02-26T12:13:09.127Z,7.47
2019-02-26T12:15:39.788Z,11.45
2019-02-26T12:18:09.884Z,3.12
2019-02-26T12:20:40.005Z,4.35
2019-02-26T12:23:10.606Z,3.35
2019-02-26T12:25:38.252Z,4.83
2019-02-26T12:28:08.230Z,8.70
2019-02-26T12:30:37.677Z,5.08
2019-02-26T12:33:07.680Z,4.97
2019-02-26T12:35:38.290Z,13.50
2019-02-26T12:38:17.319Z,6.87
2019-02-26T12:40:37.971Z,10.40
2019-02-26T12:43:09.131Z,5.30
2019-02-26T12:45:38.765Z,5.83
2019-02-26T12:48:10.266Z,4.87
2019-02-26T12:50:40.440Z,9.25
2019-02-26T12:53:09.536Z,7.05
2019-02-26T12:55:38.353Z,10.68
2019-02-26T12:58:07.928Z,9.05
2019-02-26T13:00:38.360Z,8.35
2019-02-26T13:03:09.331Z,5.83
2019-02-26T13:05:38.462Z,12.88
2019-02-26T13:08:09.779Z,12.23
2019-02-26T13:10:38.555Z,9.98
2019-02-26T13:13:07.920Z,11.12
2019-02-26T13:15:36.549Z,7.08
2019-02-26T13:18:04.942Z,6.25
2019-02-26T13:20:33.311Z,8.73
2019-02-26T13:23:16.452Z,5.15
2019-02-26T13:25:31.802Z,8.95
2019-02-26T13:28:00.183Z,9.03
2019-02-26T13:30:28.756Z,7.05
2019-02-26T13:33:00.747Z,6.67
2019-02-26T13:35:27.232Z,7.50
2019-02-26T13:38:00.224Z,7.03
2019-02-26T13:40:28.616Z,5.00
2019-02-26T13:45:27.945Z,10.88
2019-02-26T13:48:01.094Z,10.28
2019-02-26T13:50:29.200Z,12.68
2019-02-26T13:52:57.671Z,13.03
2019-02-26T13:55:26.128Z,12.82
2019-02-26T13:57:54.513Z,19.20
2019-02-26T14:00:26.314Z,18.70
2019-02-26T14:02:53.141Z,18.77
2019-02-26T14:05:21.532Z,20.35
2019-02-26T14:07:49.924Z,13.62
2019-02-26T14:10:25.416Z,16.02
2019-02-26T14:12:53.801Z,8.25
2019-02-26T14:15:28.594Z,9.93
2019-02-26T14:17:56.990Z,15.68
2019-02-26T14:20:25.372Z,18.27
2019-02-26T14:22:53.787Z,17.98
2019-02-26T14:25:22.196Z,18.32
2019-02-26T14:27:50.583Z,14.83
2019-02-26T14:30:20.209Z,12.28
2019-02-26T14:32:48.603Z,16.60
2019-02-26T14:35:16.997Z,18.42
2019-02-26T14:37:45.445Z,11.95
2019-02-26T14:40:17.901Z,20.23
2019-02-26T14:42:46.292Z,12.88
2019-02-26T14:45:17.760Z,15.90
2019-02-26T14:47:46.260Z,14.53
2019-02-26T14:50:20.603Z,9.63
2019-02-26T14:52:49.061Z,11.80
2019-02-26T14:55:17.527Z,19.15
2019-02-26T14:57:46.080Z,9.58
2019-02-26T15:00:22.411Z,6.15
2019-02-26T15:02:50.977Z,11.35
2019-02-26T15:05:19.361Z,9.10
2019-02-26T15:07:47.743Z,11.12
2019-02-26T15:10:16.193Z,9.50
2019-02-26T15:12:44.653Z,9.83
2019-02-26T15:15:14.864Z,16.45
2019-02-26T15:17:43.255Z,20.90
2019-02-26T15:20:22.843Z,11.10
2019-02-26T15:22:51.219Z,10.57
2019-02-26T15:25:31.205Z,13.77
2019-02-26T15:28:04.961Z,13.97
2019-02-26T15:30:29.692Z,9.33
2019-02-26T15:32:58.078Z,12.67
2019-02-26T15:35:26.747Z,11.50
2019-02-26T15:37:55.140Z,18.00
2019-02-26T15:40:23.528Z,13.93
2019-02-26T15:42:52.714Z,17.57
2019-02-26T15:45:29.003Z,10.77
2019-02-26T15:47:56.575Z,26.93
2019-02-26T15:50:24.963Z,20.57
2019-02-26T15:52:53.727Z,16.00
2019-02-26T15:55:31.981Z,18.03
2019-02-26T15:58:04.395Z,12.03
2019-02-26T16:00:30.767Z,22.03
2019-02-26T16:03:00.010Z,21.43
2019-02-26T16:05:32.531Z,15.30
2019-02-26T16:08:00.923Z,17.63
2019-02-26T16:10:29.311Z,15.23
2019-02-26T16:12:59.343Z,16.13
2019-02-26T16:15:27.728Z,12.43
2019-02-26T16:17:58.970Z,13.63
2019-02-26T16:20:26.227Z,13.87
2019-02-26T16:22:54.644Z,18.43
2019-02-26T16:25:23.047Z,10.17
2019-02-26T16:27:51.679Z,16.43
2019-02-26T16:30:27.152Z,10.97
2019-02-26T16:32:55.807Z,11.67
2019-02-26T16:35:25.547Z,16.47
2019-02-26T16:37:54.221Z,18.47
2019-02-26T16:40:22.744Z,11.63
2019-02-26T16:42:51.134Z,16.30
2019-02-26T16:45:27.486Z,7.87
2019-02-26T16:47:57.404Z,8.53
2019-02-26T16:50:28.510Z,8.73
2019-02-26T16:52:58.013Z,16.17
2019-02-26T16:55:27.003Z,13.93
2019-02-26T16:57:55.393Z,13.87
2019-02-26T17:00:29.708Z,14.50
2019-02-26T17:03:00.762Z,13.03
2019-02-26T17:05:28.217Z,11.90
2019-02-26T17:07:56.987Z,16.80
2019-02-26T17:10:30.319Z,13.90
2019-02-26T17:13:01.867Z,12.73
2019-02-26T17:15:35.698Z,15.93
2019-02-26T17:18:04.255Z,13.40
2019-02-26T17:20:32.635Z,16.73
2019-02-26T17:23:01.022Z,13.40
2019-02-26T17:25:29.423Z,17.97
2019-02-26T17:27:57.880Z,15.63
2019-02-26T17:30:26.263Z,16.00
2019-02-26T17:32:54.792Z,23.03
2019-02-26T17:35:23.344Z,15.03
2019-02-26T17:37:51.731Z,16.50
2019-02-26T17:40:24.237Z,15.57
2019-02-26T17:42:54.265Z,15.97
2019-02-26T17:45:30.942Z,22.47
2019-02-26T17:47:59.324Z,18.80
2019-02-26T17:50:30.724Z,21.43
2019-02-26T17:52:59.103Z,23.73
2019-02-26T17:55:27.675Z,19.60
2019-02-26T17:57:56.068Z,16.87
2019-02-26T18:00:26.659Z,17.60
2019-02-26T18:02:55.057Z,19.27
2019-02-26T18:05:23.504Z,27.73
2019-02-26T18:07:51.906Z,27.97
2019-02-26T18:10:21.847Z,21.80
2019-02-26T18:12:50.224Z,25.23
2019-02-26T18:15:20.695Z,26.97
2019-02-26T18:17:48.865Z,23.80
2019-02-26T18:20:19.272Z,21.60
2019-02-26T18:22:48.499Z,21.73
2019-02-26T18:25:21.556Z,26.33
2019-02-26T18:27:50.021Z,25.23
2019-02-26T18:30:26.239Z,27.73
2019-02-26T18:32:57.352Z,20.73
2019-02-26T18:35:24.753Z,24.53
2019-02-26T18:37:53.139Z,22.93
2019-02-26T18:40:21.527Z,19.50
2019-02-26T18:42:49.985Z,24.90
2019-02-26T18:45:27.493Z,25.80
2019-02-26T18:47:54.521Z,27.87
2019-02-26T18:50:25.933Z,27.70
2019-02-26T18:52:53.754Z,23.20
2019-02-26T18:55:22.315Z,24.47
2019-02-26T18:57:50.700Z,27.40
2019-02-26T19:00:21.043Z,23.03
2019-02-26T19:02:49.417Z,28.93
2019-02-26T19:05:20.477Z,28.20
2019-02-26T19:07:47.927Z,30.70
2019-02-26T19:10:20.928Z,30.60
2019-02-26T19:12:48.738Z,31.77
2019-02-26T19:15:19.829Z,30.47
2019-02-26T19:17:49.963Z,27.80
2019-02-26T19:20:36.232Z,34.17
2019-02-26T19:23:04.624Z,31.80
2019-02-26T19:25:33.005Z,27.43
2019-02-26T19:28:01.384Z,32.23
2019-02-26T19:30:29.778Z,31.73
2019-02-26T19:32:58.391Z,30.40
2019-02-26T19:35:26.783Z,33.93
2019-02-26T19:37:59.820Z,39.60
2019-02-26T19:40:45.939Z,38.93
2019-02-26T19:43:14.324Z,38.83
2019-02-26T19:45:44.836Z,32.00
2019-02-26T19:48:12.835Z,37.57
2019-02-26T19:50:45.457Z,31.00
2019-02-26T19:53:11.338Z,32.33
2019-02-26T19:55:41.684Z,29.50
2019-02-26T19:58:10.070Z,35.33
2019-02-26T20:00:38.535Z,34.07
2019-02-26T20:03:06.923Z,32.67
2019-02-26T20:05:35.316Z,35.53
2019-02-26T20:08:05.306Z,32.97
2019-02-26T20:10:33.811Z,28.73
2019-02-26T20:13:03.983Z,29.30
2019-02-26T20:15:32.325Z,29.43
2019-02-26T20:18:00.722Z,40.80
2019-02-26T20:20:29.107Z,30.77
2019-02-26T20:22:57.502Z,36.77
2019-02-26T20:25:25.896Z,33.10
2019-02-26T20:27:55.183Z,31.17
2019-02-26T20:30:24.791Z,27.23
2019-02-26T20:32:53.159Z,32.73
2019-02-26T20:35:21.556Z,37.20
2019-02-26T20:37:49.936Z,36.13
2019-02-26T20:40:21.396Z,34.63
2019-02-26T20:42:49.792Z,27.67
2019-02-26T20:45:22.769Z,33.03
2019-02-26T20:47:51.383Z,27.37
2019-02-26T20:50:21.331Z,31.20
2019-02-26T20:52:50.330Z,52.00
2019-02-26T20:55:27.653Z,32.23
2019-02-26T20:57:56.047Z,33.13
2019-02-26T21:00:25.296Z,25.50
2019-02-26T21:02:54.432Z,34.93
2019-02-26T21:05:24.900Z,36.83
2019-02-26T21:07:52.994Z,26.87
2019-02-26T21:10:21.871Z,32.97
2019-02-26T21:12:50.263Z,30.33
2019-02-26T21:15:20.384Z,33.93
2019-02-26T21:17:48.772Z,32.70
2019-02-26T21:20:17.151Z,27.20
2019-02-26T21:22:45.608Z,33.93
2019-02-26T21:25:14.823Z,29.77
2019-02-26T21:27:43.276Z,30.00
2019-02-26T21:30:19.028Z,28.20
2019-02-26T21:32:47.403Z,24.80
2019-02-26T21:35:20.218Z,34.20
2019-02-26T21:37:45.900Z,29.97
2019-02-26T21:40:16.175Z,27.30
2019-02-26T21:42:45.299Z,24.87
2019-02-26T21:45:19.691Z,25.43
2019-02-26T21:47:48.087Z,21.73
2019-02-26T21:50:16.844Z,31.67
2019-02-26T21:52:59.022Z,20.90
2019-02-26T21:55:16.120Z,29.73
2019-02-26T21:57:44.496Z,25.00
2019-02-26T22:00:17.151Z,25.33
2019-02-26T22:02:45.601Z,23.73
2019-02-26T22:05:13.978Z,27.13
2019-02-26T22:07:42.378Z,32.50
2019-02-26T22:10:13.457Z,36.20
2019-02-26T22:12:41.832Z,30.70
2019-02-26T22:15:13.065Z,24.93
2019-02-26T22:17:41.444Z,30.60
2019-02-26T22:20:22.069Z,27.03
2019-02-26T22:22:42.217Z,24.00
2019-02-26T22:25:15.803Z,34.60
2019-02-26T22:27:41.755Z,46.33
2019-02-26T22:30:12.971Z,40.90
2019-02-26T22:32:41.364Z,63.77
2019-02-26T22:35:10.384Z,30.47
2019-02-26T22:37:38.939Z,30.77
2019-02-26T22:40:16.150Z,28.87
2019-02-26T22:42:44.521Z,33.93
2019-02-26T22:45:14.659Z,38.47
2019-02-26T22:47:44.402Z,27.13
2019-02-26T22:50:15.155Z,27.73
2019-02-26T22:52:43.561Z,32.13
2019-02-26T22:55:16.491Z,26.03
2019-02-26T22:57:45.763Z,29.50
2019-02-26T23:00:49.302Z,25.87
2019-02-26T23:03:18.115Z,28.73
2019-02-26T23:06:07.368Z,32.97
2019-02-26T23:08:35.811Z,32.53
2019-02-26T23:11:04.283Z,33.57
2019-02-26T23:13:33.107Z,26.80
2019-02-26T23:16:01.660Z,27.97
2019-02-26T23:18:30.958Z,33.73
2019-02-26T23:21:00.152Z,29.30
2019-02-26T23:23:28.527Z,33.60
2019-02-26T23:25:56.920Z,37.60
2019-02-26T23:28:25.308Z,29.60
2019-02-26T23:30:53.703Z,28.73
2019-02-26T23:33:22.095Z,36.57
2019-02-26T23:35:54.849Z,34.10
2019-02-26T23:38:20.942Z,35.40
2019-02-26T23:40:49.583Z,36.10
2019-02-26T23:43:17.959Z,40.93
2019-02-26T23:45:46.348Z,33.33
2019-02-26T23:48:14.800Z,34.67
2019-02-26T23:50:47.128Z,33.00
2019-02-26T23:53:13.291Z,32.77
2019-02-26T23:55:46.408Z,40.33
2019-02-26T23:58:11.784Z,40.70
